createdAt,value
2019-03-24T00:00:48.263Z,22.6
2019-03-24T00:03:54.172Z,22.6
2019-03-24T00:07:00.079Z,22.6
2019-03-24T00:10:06.031Z,22.6
2019-03-24T00:13:11.983Z,22.6
2019-03-24T00:16:17.903Z,22.6
2019-03-24T00:19:23.836Z,22.6
2019-03-24T00:22:29.823Z,22.5
2019-03-24T00:25:38.708Z,22.5
2019-03-24T00:28:44.630Z,22.5
2019-03-24T00:31:50.527Z,22.5
2019-03-24T00:34:56.446Z,22.5
2019-03-24T00:38:02.421Z,22.5
2019-03-24T00:41:08.315Z,22.5
2019-03-24T00:44:14.443Z,22.5
2019-03-24T00:47:20.335Z,22.5
2019-03-24T00:50:26.255Z,22.5
2019-03-24T00:53:32.232Z,22.5
2019-03-24T00:56:38.099Z,22.5
2019-03-24T00:59:44.053Z,22.4
2019-03-24T01:02:49.924Z,22.4
2019-03-24T01:05:55.909Z,22.4
2019-03-24T01:09:04.434Z,22.4
2019-03-24T01:12:10.365Z,22.4
2019-03-24T01:15:16.339Z,22.4
2019-03-24T01:18:22.278Z,22.4
2019-03-24T01:21:28.338Z,22.4
2019-03-24T01:24:34.202Z,22.4
2019-03-24T01:27:40.197Z,22.4
2019-03-24T01:30:46.123Z,22.4
2019-03-24T01:33:52.088Z,22.4
2019-03-24T01:36:58.026Z,22.4
2019-03-24T01:40:03.919Z,22.4
2019-03-24T01:43:09.872Z,22.4
2019-03-24T01:46:15.817Z,22.3
2019-03-24T01:49:21.831Z,22.4
2019-03-24T01:52:27.916Z,22.3
2019-03-24T01:55:33.800Z,22.3
2019-03-24T01:58:39.799Z,22.3
2019-03-24T02:01:45.745Z,22.3
2019-03-24T02:04:51.697Z,22.3
2019-03-24T02:07:57.733Z,22.3
2019-03-24T02:11:03.656Z,22.3
2019-03-24T02:14:09.645Z,22.2
2019-03-24T02:17:15.668Z,22.2
2019-03-24T02:20:24.342Z,22.2
2019-03-24T02:23:30.252Z,22.2
2019-03-24T02:26:36.244Z,22.2
2019-03-24T02:29:42.168Z,22.2
2019-03-24T02:32:48.145Z,22.2
2019-03-24T02:35:54.228Z,22.2
2019-03-24T02:39:00.106Z,22.2
2019-03-24T02:42:06.251Z,22.2
2019-03-24T02:45:12.175Z,22.2
2019-03-24T02:48:18.137Z,22.2
2019-03-24T02:51:24.128Z,22.2
2019-03-24T02:54:30.130Z,22.2
2019-03-24T02:57:36.050Z,22.2
2019-03-24T03:00:44.532Z,22.1
2019-03-24T03:03:50.598Z,22.1
2019-03-24T03:06:56.530Z,22.2
2019-03-24T03:10:02.473Z,22.1
2019-03-24T03:13:08.553Z,22.1
2019-03-24T03:16:14.523Z,22.1
2019-03-24T03:19:20.473Z,22.1
2019-03-24T03:22:26.536Z,22.1
2019-03-24T03:25:32.627Z,22.1
2019-03-24T03:28:38.555Z,22.1
2019-03-24T03:31:44.567Z,22.1
2019-03-24T03:34:50.607Z,22.1
2019-03-24T03:37:56.829Z,22.1
2019-03-24T03:41:02.892Z,22.1
2019-03-24T03:44:09.012Z,22.1
2019-03-24T03:47:15.109Z,22.1
2019-03-24T03:50:21.018Z,22.1
2019-03-24T03:53:27.021Z,22.1
2019-03-24T03:56:32.958Z,22.1
2019-03-24T03:59:39.029Z,22
2019-03-24T04:02:45.096Z,22
2019-03-24T04:05:51.089Z,22
2019-03-24T04:08:57.062Z,22
2019-03-24T04:12:03.096Z,22
2019-03-24T04:15:09.122Z,22
2019-03-24T04:18:15.112Z,22
2019-03-24T04:21:21.172Z,22
2019-03-24T04:24:27.134Z,22
2019-03-24T04:27:33.131Z,22
2019-03-24T04:30:39.223Z,22
2019-03-24T04:33:45.303Z,22
2019-03-24T04:36:51.484Z,22
2019-03-24T04:39:57.474Z,22
2019-03-24T04:43:03.480Z,22
2019-03-24T04:46:09.502Z,22.1
2019-03-24T04:49:15.432Z,22.1
2019-03-24T04:52:23.981Z,22.1
2019-03-24T04:55:30.090Z,22.1
2019-03-24T04:58:38.920Z,22.2
2019-03-24T05:01:44.839Z,22.2
2019-03-24T05:04:50.861Z,22.2
2019-03-24T05:07:56.744Z,22.3
2019-03-24T05:11:02.674Z,22.4
2019-03-24T05:14:08.569Z,22.4
2019-03-24T05:17:14.518Z,22.5
2019-03-24T05:20:31.233Z,22.6
2019-03-24T05:23:37.162Z,22.7
2019-03-24T05:26:43.204Z,22.7
2019-03-24T05:29:49.206Z,22.7
2019-03-24T05:32:55.116Z,22.8
2019-03-24T05:36:01.124Z,22.8
2019-03-24T05:39:07.034Z,22.9
2019-03-24T05:42:12.997Z,22.9
2019-03-24T05:45:19.000Z,22.9
2019-03-24T05:48:24.913Z,23
2019-03-24T05:51:30.875Z,23
2019-03-24T05:54:36.880Z,23
2019-03-24T05:57:42.837Z,23
2019-03-24T06:00:48.806Z,23.1
2019-03-24T06:03:54.677Z,23.1
2019-03-24T06:07:00.688Z,23.1
2019-03-24T06:10:06.624Z,23.2
2019-03-24T06:13:12.545Z,23.2
2019-03-24T06:16:18.544Z,23.3
2019-03-24T06:19:24.516Z,23.3
2019-03-24T06:22:30.472Z,23.3
2019-03-24T06:25:36.469Z,23.3
2019-03-24T06:28:42.339Z,23.4
2019-03-24T06:31:48.281Z,23.4
2019-03-24T06:34:54.272Z,23.4
2019-03-24T06:38:00.181Z,23.4
2019-03-24T06:41:06.134Z,23.5
2019-03-24T06:44:14.865Z,23.5
2019-03-24T06:47:20.851Z,23.5
2019-03-24T06:50:26.720Z,23.6
2019-03-24T06:53:32.663Z,23.6
2019-03-24T06:56:38.542Z,23.6
2019-03-24T06:59:44.490Z,23.6
2019-03-24T07:02:50.421Z,23.7
2019-03-24T07:05:56.392Z,23.7
2019-03-24T07:09:02.387Z,23.7
2019-03-24T07:12:08.309Z,23.7
2019-03-24T07:15:16.855Z,23.8
2019-03-24T07:18:22.803Z,23.8
2019-03-24T07:21:28.776Z,23.8
2019-03-24T07:24:34.695Z,23.9
2019-03-24T07:27:40.597Z,23.9
2019-03-24T07:30:46.598Z,23.9
2019-03-24T07:33:52.616Z,23.9
2019-03-24T07:36:58.568Z,23.9
2019-03-24T07:40:04.489Z,23.9
2019-03-24T07:43:10.512Z,24
2019-03-24T07:46:16.416Z,24
2019-03-24T07:49:22.322Z,24
2019-03-24T07:52:28.251Z,24
2019-03-24T07:55:34.136Z,24
2019-03-24T07:58:40.068Z,24
2019-03-24T08:01:48.542Z,24.1
2019-03-24T08:04:54.550Z,24.1
2019-03-24T08:08:00.452Z,24.1
2019-03-24T08:11:06.482Z,24.1
2019-03-24T08:14:12.484Z,24.1
2019-03-24T08:17:21.103Z,24.1
2019-03-24T08:20:27.038Z,24.1
2019-03-24T08:23:33.019Z,24.1
2019-03-24T08:26:39.003Z,24.1
2019-03-24T08:29:44.968Z,24.1
2019-03-24T08:32:50.947Z,24.1
2019-03-24T08:35:57.030Z,24.1
2019-03-24T08:39:03.041Z,24.1
2019-03-24T08:42:09.013Z,24.1
2019-03-24T08:45:14.929Z,24.1
2019-03-24T08:48:20.850Z,24.1
2019-03-24T08:51:26.798Z,24.1
2019-03-24T08:54:32.699Z,24.1
2019-03-24T08:57:38.718Z,24.1
2019-03-24T09:00:44.621Z,24.1
2019-03-24T09:03:50.545Z,24.1
2019-03-24T09:06:56.524Z,24.1
2019-03-24T09:10:02.474Z,24.1
2019-03-24T09:13:08.406Z,24.1
2019-03-24T09:16:14.319Z,24.1
2019-03-24T09:19:20.297Z,24.1
2019-03-24T09:22:26.373Z,24.1
2019-03-24T09:25:32.355Z,24.1
2019-03-24T09:28:39.296Z,24.1
2019-03-24T09:31:45.193Z,24.1
2019-03-24T09:34:51.246Z,24.1
2019-03-24T09:37:57.258Z,24.1
2019-03-24T09:41:03.235Z,24.1
2019-03-24T09:44:09.154Z,24.1
2019-03-24T09:47:15.133Z,24.1
2019-03-24T09:50:21.009Z,24.1
2019-03-24T09:53:26.947Z,24.1
2019-03-24T09:56:32.824Z,24.1
2019-03-24T09:59:38.742Z,24.1
2019-03-24T10:02:44.646Z,24.1
2019-03-24T10:05:50.573Z,24.1
2019-03-24T10:08:56.585Z,24.1
2019-03-24T10:12:02.633Z,24.1
2019-03-24T10:15:08.545Z,24.1
2019-03-24T10:18:14.602Z,24.1
2019-03-24T10:21:20.561Z,24.1
2019-03-24T10:24:26.620Z,24.1
2019-03-24T10:27:32.541Z,24.2
2019-03-24T10:30:38.445Z,24.2
2019-03-24T10:33:44.411Z,24.1
2019-03-24T10:36:50.319Z,24.2
2019-03-24T10:39:56.227Z,24.1
2019-03-24T10:43:02.284Z,24.2
2019-03-24T10:46:08.265Z,24.2
2019-03-24T10:49:24.029Z,24.1
2019-03-24T10:52:30.828Z,24.2
2019-03-24T10:55:36.762Z,24.2
2019-03-24T10:58:42.679Z,24.1
2019-03-24T11:01:48.597Z,24.2
2019-03-24T11:04:54.541Z,24.2
2019-03-24T11:08:00.565Z,24.2
2019-03-24T11:11:06.467Z,24.2
2019-03-24T11:14:12.428Z,24.2
2019-03-24T11:17:18.434Z,24.2
2019-03-24T11:20:24.341Z,24.2
2019-03-24T11:23:30.401Z,24.2
2019-03-24T11:26:36.400Z,24.2
2019-03-24T11:29:42.322Z,24.2
2019-03-24T11:32:48.337Z,24.2
2019-03-24T11:35:54.195Z,24.2
2019-03-24T11:39:00.117Z,24.2
2019-03-24T11:42:06.064Z,24.2
2019-03-24T11:45:12.022Z,24.2
2019-03-24T11:48:17.991Z,24.2
2019-03-24T11:51:23.891Z,24.2
2019-03-24T11:54:29.828Z,24.2
2019-03-24T11:57:35.771Z,24.2
2019-03-24T12:00:41.738Z,24.2
2019-03-24T12:03:47.673Z,24.2
2019-03-24T12:06:53.592Z,24.2
2019-03-24T12:09:59.572Z,24.2
2019-03-24T12:13:08.473Z,24.2
2019-03-24T12:16:14.381Z,24.2
2019-03-24T12:19:20.422Z,24.2
2019-03-24T12:22:26.365Z,24.2
2019-03-24T12:25:32.309Z,24.2
2019-03-24T12:28:38.234Z,24.2
2019-03-24T12:31:44.301Z,24.2
2019-03-24T12:34:50.210Z,24.2
2019-03-24T12:37:56.125Z,24.2
2019-03-24T12:41:02.141Z,24.2
2019-03-24T12:44:08.086Z,24.2
2019-03-24T12:47:13.996Z,24.2
2019-03-24T12:50:30.529Z,24.2
2019-03-24T12:53:37.674Z,24.2
2019-03-24T12:56:43.838Z,24.2
2019-03-24T12:59:50.118Z,24.2
2019-03-24T13:02:56.232Z,24.2
2019-03-24T13:06:02.108Z,24.2
2019-03-24T13:09:08.114Z,24.2
2019-03-24T13:12:14.081Z,24.2
2019-03-24T13:15:20.022Z,24.2
2019-03-24T13:18:26.023Z,24.2
2019-03-24T13:21:32.077Z,24.2
2019-03-24T13:24:37.950Z,24.2
2019-03-24T13:27:43.957Z,24.2
2019-03-24T13:30:50.034Z,24.2
2019-03-24T13:33:55.958Z,24.2
2019-03-24T13:37:04.131Z,24.2
2019-03-24T13:40:10.274Z,24.2
2019-03-24T13:43:16.225Z,24.2
2019-03-24T13:46:22.135Z,24.2
2019-03-24T13:49:28.082Z,24.2
2019-03-24T13:52:34.004Z,24.2
2019-03-24T13:55:39.991Z,24.2
2019-03-24T13:58:45.921Z,24.2
2019-03-24T14:01:51.925Z,24.2
2019-03-24T14:04:57.897Z,24.2
2019-03-24T14:08:03.912Z,24.2
2019-03-24T14:11:09.871Z,24.2
2019-03-24T14:14:15.775Z,24.3
2019-03-24T14:17:21.854Z,24.3
2019-03-24T14:20:27.888Z,24.3
2019-03-24T14:23:46.595Z,24.4
2019-03-24T14:26:52.567Z,24.4
2019-03-24T14:29:58.570Z,24.4
2019-03-24T14:33:04.542Z,24.4
2019-03-24T14:36:10.456Z,24.5
2019-03-24T14:39:19.588Z,24.5
2019-03-24T14:42:25.652Z,24.5
2019-03-24T14:45:31.669Z,24.5
2019-03-24T14:48:37.680Z,24.6
2019-03-24T14:51:43.617Z,24.6
2019-03-24T14:54:49.532Z,24.6
2019-03-24T14:57:55.464Z,24.6
2019-03-24T15:01:01.497Z,24.6
2019-03-24T15:04:07.419Z,24.6
2019-03-24T15:07:13.415Z,24.7
2019-03-24T15:10:19.452Z,24.6
2019-03-24T15:13:25.405Z,24.7
2019-03-24T15:16:34.141Z,24.7
2019-03-24T15:19:40.142Z,24.6
2019-03-24T15:22:46.044Z,24.6
2019-03-24T15:25:52.118Z,24.7
2019-03-24T15:28:58.023Z,24.7
2019-03-24T15:32:04.067Z,24.7
2019-03-24T15:35:10.004Z,24.7
2019-03-24T15:38:15.988Z,24.7
2019-03-24T15:41:21.896Z,24.7
2019-03-24T15:44:27.781Z,24.7
2019-03-24T15:47:33.775Z,24.7
2019-03-24T15:50:39.669Z,24.7
2019-03-24T15:53:45.553Z,24.7
2019-03-24T15:56:51.487Z,24.7
2019-03-24T15:59:57.423Z,24.6
2019-03-24T16:03:03.508Z,24.6
2019-03-24T16:06:09.391Z,24.7
2019-03-24T16:09:15.333Z,24.6
2019-03-24T16:12:21.272Z,24.7
2019-03-24T16:15:27.175Z,24.6
2019-03-24T16:18:33.166Z,24.6
2019-03-24T16:21:39.095Z,24.6
2019-03-24T16:24:45.093Z,24.6
2019-03-24T16:27:51.106Z,24.6
2019-03-24T16:30:56.966Z,24.5
2019-03-24T16:34:05.781Z,24.6
2019-03-24T16:37:11.642Z,24.6
2019-03-24T16:40:17.572Z,24.5
2019-03-24T16:43:23.754Z,24.4
2019-03-24T16:46:29.634Z,24.4
2019-03-24T16:49:35.630Z,24.4
2019-03-24T16:52:41.658Z,24.3
2019-03-24T16:55:47.568Z,24.3
2019-03-24T16:58:53.552Z,24.3
2019-03-24T17:01:59.499Z,24.3
2019-03-24T17:05:08.548Z,24.2
2019-03-24T17:08:14.467Z,24.2
2019-03-24T17:11:20.431Z,24.2
2019-03-24T17:14:26.402Z,24.1
2019-03-24T17:17:32.315Z,24.1
2019-03-24T17:20:38.441Z,24
2019-03-24T17:23:44.426Z,24
2019-03-24T17:26:50.445Z,24
2019-03-24T17:29:56.358Z,24
2019-03-24T17:33:02.370Z,23.9
2019-03-24T17:36:08.276Z,23.9
2019-03-24T17:39:14.187Z,23.9
2019-03-24T17:42:20.241Z,23.8
2019-03-24T17:45:26.260Z,23.8
2019-03-24T17:48:35.086Z,23.8
2019-03-24T17:51:41.035Z,23.7
2019-03-24T17:54:47.014Z,23.7
2019-03-24T17:57:53.013Z,23.7
2019-03-24T18:00:59.002Z,23.7
2019-03-24T18:04:04.973Z,23.6
2019-03-24T18:07:10.988Z,23.6
2019-03-24T18:10:16.990Z,23.6
2019-03-24T18:13:25.712Z,23.6
2019-03-24T18:16:31.711Z,23.5
2019-03-24T18:19:37.721Z,23.5
2019-03-24T18:22:43.615Z,23.5
2019-03-24T18:25:49.723Z,23.5
2019-03-24T18:28:55.723Z,23.4
2019-03-24T18:32:01.732Z,23.4
2019-03-24T18:35:07.706Z,23.4
2019-03-24T18:38:13.714Z,23.4
2019-03-24T18:41:19.602Z,23.4
2019-03-24T18:44:25.584Z,23.3
2019-03-24T18:47:31.696Z,23.3
2019-03-24T18:50:40.091Z,23.3
2019-03-24T18:53:46.074Z,23.2
2019-03-24T18:56:54.896Z,23.2
2019-03-24T19:00:00.764Z,23.2
2019-03-24T19:03:06.696Z,23.2
2019-03-24T19:06:12.665Z,23.2
2019-03-24T19:09:18.544Z,23.1
2019-03-24T19:12:24.698Z,23.1
2019-03-24T19:15:30.680Z,23.1
2019-03-24T19:18:39.293Z,23.1
2019-03-24T19:21:45.311Z,23.1
2019-03-24T19:24:54.022Z,23.1
2019-03-24T19:27:59.974Z,23.1
2019-03-24T19:31:06.329Z,23.1
2019-03-24T19:34:12.579Z,23.1
2019-03-24T19:37:18.571Z,23.1
2019-03-24T19:40:24.527Z,23.1
2019-03-24T19:43:30.445Z,23.1
2019-03-24T19:46:36.362Z,23
2019-03-24T19:49:42.317Z,23
2019-03-24T19:52:48.319Z,23
2019-03-24T19:55:57.059Z,23
2019-03-24T19:59:03.106Z,23
2019-03-24T20:02:09.010Z,23
2019-03-24T20:05:14.983Z,23
2019-03-24T20:08:20.999Z,23
2019-03-24T20:11:26.852Z,23
2019-03-24T20:14:32.797Z,23
2019-03-24T20:17:38.853Z,22.9
2019-03-24T20:20:44.810Z,22.9
2019-03-24T20:23:53.229Z,22.9
2019-03-24T20:26:59.188Z,22.9
2019-03-24T20:30:05.149Z,22.9
2019-03-24T20:33:11.201Z,22.9
2019-03-24T20:36:17.127Z,22.9
2019-03-24T20:39:23.052Z,22.8
2019-03-24T20:42:29.060Z,22.8
2019-03-24T20:45:35.138Z,22.8
2019-03-24T20:48:41.109Z,22.8
2019-03-24T20:51:47.070Z,22.8
2019-03-24T20:54:53.000Z,22.8
2019-03-24T20:57:58.956Z,22.8
2019-03-24T21:01:04.917Z,22.8
2019-03-24T21:04:10.828Z,22.8
2019-03-24T21:07:16.795Z,22.8
2019-03-24T21:10:24.062Z,22.8
2019-03-24T21:13:30.038Z,22.7
2019-03-24T21:16:35.996Z,22.7
2019-03-24T21:19:41.869Z,22.7
2019-03-24T21:22:47.819Z,22.7
2019-03-24T21:25:53.782Z,22.7
2019-03-24T21:28:59.631Z,22.7
2019-03-24T21:32:05.573Z,22.7
2019-03-24T21:35:11.458Z,22.7
2019-03-24T21:38:17.428Z,22.7
2019-03-24T21:41:23.519Z,22.7
2019-03-24T21:44:29.437Z,22.6
2019-03-24T21:47:35.373Z,22.7
2019-03-24T21:50:41.354Z,22.6
2019-03-24T21:53:47.267Z,22.6
2019-03-24T21:56:53.194Z,22.6
2019-03-24T21:59:59.133Z,22.6
2019-03-24T22:03:05.153Z,22.6
2019-03-24T22:06:11.098Z,22.6
2019-03-24T22:09:17.012Z,22.6
2019-03-24T22:12:22.950Z,22.6
2019-03-24T22:15:28.913Z,22.5
2019-03-24T22:18:34.789Z,22.5
2019-03-24T22:21:40.716Z,22.5
2019-03-24T22:24:46.734Z,22.5
2019-03-24T22:27:52.727Z,22.5
2019-03-24T22:31:01.652Z,22.5
2019-03-24T22:34:07.650Z,22.5
2019-03-24T22:37:15.956Z,22.5
2019-03-24T22:40:22.213Z,22.5
2019-03-24T22:43:28.175Z,22.5
2019-03-24T22:46:34.006Z,22.5
2019-03-24T22:49:39.967Z,22.5
2019-03-24T22:52:45.911Z,22.5
2019-03-24T22:55:51.818Z,22.4
2019-03-24T22:58:57.754Z,22.4
2019-03-24T23:02:03.657Z,22.5
2019-03-24T23:05:09.588Z,22.4
2019-03-24T23:08:15.555Z,22.4
2019-03-24T23:11:21.523Z,22.4
2019-03-24T23:14:27.484Z,22.4
2019-03-24T23:17:33.357Z,22.4
2019-03-24T23:20:39.316Z,22.4
2019-03-24T23:23:45.173Z,22.4
2019-03-24T23:26:51.108Z,22.4
2019-03-24T23:29:57.099Z,22.4
2019-03-24T23:33:03.470Z,22.3
2019-03-24T23:36:09.331Z,22.3
2019-03-24T23:39:15.261Z,22.3
2019-03-24T23:42:21.137Z,22.3
2019-03-24T23:45:27.107Z,22.3
2019-03-24T23:48:33.013Z,22.3
2019-03-24T23:51:38.995Z,22.3
2019-03-24T23:54:45.024Z,22.3
2019-03-24T23:57:50.984Z,22.3
